sensor_id;sensor_type;location;lat;lon;timestamp;pressure;altitude;pressure_sealevel;temperature;humidity
19777;BME280;10047;42.490;26.012;2023-04-06T00:01:18;100189.06;;;7.39;100.00
19777;BME280;10047;42.490;26.012;2023-04-06T00:03:44;100185.63;;;7.44;100.00
19777;BME280;10047;42.490;26.012;2023-04-06T00:06:09;100073.59;;;6.69;100.00
19777;BME280;10047;42.490;26.012;2023-04-06T00:08:38;100185.63;;;7.43;100.00
19777;BME280;10047;42.490;26.012;2023-04-06T00:11:04;100135.69;;;6.90;100.00
19777;BME280;10047;42.490;26.012;2023-04-06T00:13:29;100175.28;;;7.61;100.00
19777;BME280;10047;42.490;26.012;2023-04-06T00:15:55;100167.41;;;7.17;100.00
19777;BME280;10047;42.490;26.012;2023-04-06T00:18:20;100161.81;;;7.60;100.00
19777;BME280;10047;42.490;26.012;2023-04-06T00:20:46;100173.78;;;7.45;100.00
19777;BME280;10047;42.490;26.012;2023-04-06T00:23:11;100095.25;;;6.90;100.00
19777;BME280;10047;42.490;26.012;2023-04-06T00:25:37;100155.72;;;7.07;100.00
19777;BME280;10047;42.490;26.012;2023-04-06T00:28:02;100116.84;;;7.17;100.00
19777;BME280;10047;42.490;26.012;2023-04-06T00:30:28;100159.22;;;7.66;100.00
19777;BME280;10047;42.490;26.012;2023-04-06T00:32:54;100161.56;;;7.77;100.00
19777;BME280;10047;42.490;26.012;2023-04-06T00:35:19;100151.03;;;7.45;100.00
19777;BME280;10047;42.490;26.012;2023-04-06T00:37:46;100163.19;;;7.81;100.00
19777;BME280;10047;42.490;26.012;2023-04-06T00:40:14;100042.09;;;6.99;100.00
19777;BME280;10047;42.490;26.012;2023-04-06T00:42:46;100161.97;;;7.47;100.00
19777;BME280;10047;42.490;26.012;2023-04-06T00:45:11;100168.94;;;7.30;100.00
19777;BME280;10047;42.490;26.012;2023-04-06T00:47:37;100125.59;;;7.57;100.00
19777;BME280;10047;42.490;26.012;2023-04-06T00:50:02;100099.09;;;7.23;100.00
19777;BME280;10047;42.490;26.012;2023-04-06T00:52:28;100139.38;;;7.33;100.00
19777;BME280;10047;42.490;26.012;2023-04-06T00:54:53;100119.22;;;7.29;100.00
19777;BME280;10047;42.490;26.012;2023-04-06T00:57:19;100099.97;;;7.19;100.00
19777;BME280;10047;42.490;26.012;2023-04-06T00:59:45;100073.22;;;6.99;100.00
19777;BME280;10047;42.490;26.012;2023-04-06T01:02:10;100134.72;;;7.68;100.00
19777;BME280;10047;42.490;26.012;2023-04-06T01:04:36;100104.09;;;7.26;100.00
19777;BME280;10047;42.490;26.012;2023-04-06T01:07:01;100095.69;;;7.24;100.00
19777;BME280;10047;42.490;26.012;2023-04-06T01:09:28;100130.13;;;7.32;100.00
19777;BME280;10047;42.490;26.012;2023-04-06T01:11:58;100135.00;;;7.46;100.00
19777;BME280;10047;42.490;26.012;2023-04-06T01:14:24;100072.56;;;6.84;100.00
19777;BME280;10047;42.490;26.012;2023-04-06T01:16:52;100088.50;;;6.92;100.00
19777;BME280;10047;42.490;26.012;2023-04-06T01:19:17;100126.97;;;7.17;100.00
19777;BME280;10047;42.490;26.012;2023-04-06T01:21:43;100129.19;;;7.39;100.00
19777;BME280;10047;42.490;26.012;2023-04-06T01:24:09;100135.09;;;7.40;100.00
19777;BME280;10047;42.490;26.012;2023-04-06T01:26:35;100150.34;;;7.34;100.00
19777;BME280;10047;42.490;26.012;2023-04-06T01:29:02;100073.94;;;7.09;100.00
19777;BME280;10047;42.490;26.012;2023-04-06T01:31:28;100063.25;;;6.90;100.00
19777;BME280;10047;42.490;26.012;2023-04-06T01:33:56;100011.56;;;6.47;100.00
19777;BME280;10047;42.490;26.012;2023-04-06T01:36:21;100050.25;;;6.49;100.00
19777;BME280;10047;42.490;26.012;2023-04-06T01:38:47;100127.13;;;7.01;100.00
19777;BME280;10047;42.490;26.012;2023-04-06T01:41:12;100134.53;;;6.38;100.00
19777;BME280;10047;42.490;26.012;2023-04-06T01:43:38;100084.94;;;6.31;100.00
19777;BME280;10047;42.490;26.012;2023-04-06T01:46:04;100059.78;;;6.20;100.00
19777;BME280;10047;42.490;26.012;2023-04-06T01:48:30;100093.88;;;6.62;100.00
19777;BME280;10047;42.490;26.012;2023-04-06T01:50:55;100150.84;;;6.90;100.00
19777;BME280;10047;42.490;26.012;2023-04-06T01:53:21;100141.53;;;6.93;100.00
19777;BME280;10047;42.490;26.012;2023-04-06T01:55:47;100067.53;;;5.99;100.00
19777;BME280;10047;42.490;26.012;2023-04-06T01:58:13;100134.31;;;6.60;100.00
19777;BME280;10047;42.490;26.012;2023-04-06T02:00:39;100080.22;;;5.88;100.00
19777;BME280;10047;42.490;26.012;2023-04-06T02:03:04;100114.69;;;5.91;100.00
19777;BME280;10047;42.490;26.012;2023-04-06T02:05:31;100052.66;;;5.61;100.00
19777;BME280;10047;42.490;26.012;2023-04-06T02:07:58;100130.72;;;5.85;100.00
19777;BME280;10047;42.490;26.012;2023-04-06T02:10:23;100079.50;;;5.67;100.00
19777;BME280;10047;42.490;26.012;2023-04-06T02:12:49;100053.72;;;5.25;100.00
19777;BME280;10047;42.490;26.012;2023-04-06T02:15:15;100069.53;;;5.49;100.00
19777;BME280;10047;42.490;26.012;2023-04-06T02:17:41;100080.47;;;5.49;100.00
19777;BME280;10047;42.490;26.012;2023-04-06T02:20:07;100054.59;;;5.24;100.00
19777;BME280;10047;42.490;26.012;2023-04-06T02:22:35;100089.88;;;5.15;100.00
19777;BME280;10047;42.490;26.012;2023-04-06T02:25:00;100064.81;;;4.84;100.00
19777;BME280;10047;42.490;26.012;2023-04-06T02:27:26;100150.41;;;5.00;100.00
19777;BME280;10047;42.490;26.012;2023-04-06T02:29:52;100129.38;;;5.07;100.00
19777;BME280;10047;42.490;26.012;2023-04-06T02:32:17;100090.13;;;4.45;100.00
19777;BME280;10047;42.490;26.012;2023-04-06T02:34:51;100152.00;;;5.21;100.00
19777;BME280;10047;42.490;26.012;2023-04-06T02:37:17;100136.25;;;4.42;100.00
19777;BME280;10047;42.490;26.012;2023-04-06T02:39:42;100102.69;;;4.57;100.00
19777;BME280;10047;42.490;26.012;2023-04-06T02:42:07;100085.13;;;4.29;100.00
19777;BME280;10047;42.490;26.012;2023-04-06T02:44:34;100155.50;;;4.72;100.00
19777;BME280;10047;42.490;26.012;2023-04-06T02:47:00;100081.78;;;4.14;100.00
19777;BME280;10047;42.490;26.012;2023-04-06T02:49:25;100075.06;;;4.19;100.00
19777;BME280;10047;42.490;26.012;2023-04-06T02:51:51;100158.91;;;4.42;100.00
19777;BME280;10047;42.490;26.012;2023-04-06T02:54:16;100147.97;;;4.66;100.00
19777;BME280;10047;42.490;26.012;2023-04-06T02:56:41;100087.63;;;4.17;100.00
19777;BME280;10047;42.490;26.012;2023-04-06T02:59:07;100089.25;;;4.56;100.00
19777;BME280;10047;42.490;26.012;2023-04-06T03:01:32;100103.56;;;4.27;100.00
19777;BME280;10047;42.490;26.012;2023-04-06T03:03:58;100159.72;;;4.24;100.00
19777;BME280;10047;42.490;26.012;2023-04-06T03:06:23;100147.16;;;4.46;100.00
19777;BME280;10047;42.490;26.012;2023-04-06T03:08:48;100157.16;;;4.89;100.00
19777;BME280;10047;42.490;26.012;2023-04-06T03:11:14;100010.53;;;3.48;100.00
19777;BME280;10047;42.490;26.012;2023-04-06T03:13:39;100142.09;;;4.50;100.00
19777;BME280;10047;42.490;26.012;2023-04-06T03:16:05;100156.34;;;4.62;100.00
19777;BME280;10047;42.490;26.012;2023-04-06T03:18:31;100088.41;;;4.53;100.00
19777;BME280;10047;42.490;26.012;2023-04-06T03:20:57;100110.25;;;4.31;100.00
19777;BME280;10047;42.490;26.012;2023-04-06T03:23:22;100091.81;;;4.35;100.00
19777;BME280;10047;42.490;26.012;2023-04-06T03:25:48;100053.28;;;3.94;100.00
19777;BME280;10047;42.490;26.012;2023-04-06T03:28:14;100131.94;;;4.98;100.00
19777;BME280;10047;42.490;26.012;2023-04-06T03:30:40;100152.19;;;4.59;100.00
19777;BME280;10047;42.490;26.012;2023-04-06T03:33:05;100064.16;;;4.00;100.00
19777;BME280;10047;42.490;26.012;2023-04-06T03:35:30;100101.53;;;5.39;100.00
19777;BME280;10047;42.490;26.012;2023-04-06T03:37:56;100058.28;;;3.67;100.00
19777;BME280;10047;42.490;26.012;2023-04-06T03:40:22;100101.06;;;4.07;100.00
19777;BME280;10047;42.490;26.012;2023-04-06T03:42:48;100157.22;;;4.59;100.00
19777;BME280;10047;42.490;26.012;2023-04-06T03:45:13;100079.19;;;4.53;100.00
19777;BME280;10047;42.490;26.012;2023-04-06T03:47:47;100141.25;;;4.66;100.00
19777;BME280;10047;42.490;26.012;2023-04-06T03:50:12;100080.09;;;4.13;100.00
19777;BME280;10047;42.490;26.012;2023-04-06T03:52:37;100127.88;;;4.10;100.00
19777;BME280;10047;42.490;26.012;2023-04-06T03:55:03;100133.72;;;4.48;100.00
19777;BME280;10047;42.490;26.012;2023-04-06T03:57:29;100137.88;;;4.70;100.00
19777;BME280;10047;42.490;26.012;2023-04-06T03:59:54;100057.47;;;4.16;100.00
19777;BME280;10047;42.490;26.012;2023-04-06T04:02:20;100147.13;;;4.50;100.00
19777;BME280;10047;42.490;26.012;2023-04-06T04:04:45;100150.47;;;4.70;100.00
19777;BME280;10047;42.490;26.012;2023-04-06T04:07:12;100077.56;;;4.13;100.00
19777;BME280;10047;42.490;26.012;2023-04-06T04:09:37;100148.78;;;4.83;100.00
19777;BME280;10047;42.490;26.012;2023-04-06T04:12:06;100154.72;;;4.53;100.00
19777;BME280;10047;42.490;26.012;2023-04-06T04:14:35;100106.88;;;4.43;100.00
19777;BME280;10047;42.490;26.012;2023-04-06T04:17:00;100078.41;;;4.21;100.00
19777;BME280;10047;42.490;26.012;2023-04-06T04:19:26;100118.63;;;4.42;100.00
19777;BME280;10047;42.490;26.012;2023-04-06T04:21:51;100123.69;;;4.31;100.00
19777;BME280;10047;42.490;26.012;2023-04-06T04:24:16;100081.78;;;4.02;100.00
19777;BME280;10047;42.490;26.012;2023-04-06T04:26:42;100149.66;;;4.53;100.00
19777;BME280;10047;42.490;26.012;2023-04-06T04:29:08;100096.00;;;3.92;100.00
19777;BME280;10047;42.490;26.012;2023-04-06T04:31:33;100156.38;;;4.27;100.00
19777;BME280;10047;42.490;26.012;2023-04-06T04:33:59;100168.13;;;4.28;100.00
19777;BME280;10047;42.490;26.012;2023-04-06T04:36:25;100079.22;;;3.63;100.00
19777;BME280;10047;42.490;26.012;2023-04-06T04:38:52;100165.59;;;3.98;100.00
19777;BME280;10047;42.490;26.012;2023-04-06T04:41:17;100162.22;;;3.87;100.00
19777;BME280;10047;42.490;26.012;2023-04-06T04:43:43;100152.16;;;3.90;100.00
19777;BME280;10047;42.490;26.012;2023-04-06T04:46:09;100174.84;;;4.14;100.00
19777;BME280;10047;42.490;26.012;2023-04-06T04:48:34;100172.28;;;3.90;100.00
19777;BME280;10047;42.490;26.012;2023-04-06T04:51:00;100103.53;;;3.70;100.00
19777;BME280;10047;42.490;26.012;2023-04-06T04:53:28;100167.28;;;4.38;100.00
19777;BME280;10047;42.490;26.012;2023-04-06T04:55:53;100179.84;;;4.17;100.00
19777;BME280;10047;42.490;26.012;2023-04-06T04:58:19;100106.88;;;3.64;100.00
19777;BME280;10047;42.490;26.012;2023-04-06T05:00:47;100170.50;;;3.56;100.00
19777;BME280;10047;42.490;26.012;2023-04-06T05:03:21;100117.72;;;3.48;100.00
19777;BME280;10047;42.490;26.012;2023-04-06T05:05:47;100168.09;;;3.93;100.00
19777;BME280;10047;42.490;26.012;2023-04-06T05:08:13;100184.88;;;4.17;100.00
19777;BME280;10047;42.490;26.012;2023-04-06T05:10:38;100144.56;;;3.67;100.00
19777;BME280;10047;42.490;26.012;2023-04-06T05:13:04;100152.19;;;4.35;100.00
19777;BME280;10047;42.490;26.012;2023-04-06T05:15:29;100103.56;;;4.06;100.00
19777;BME280;10047;42.490;26.012;2023-04-06T05:17:55;100142.94;;;4.73;100.00
19777;BME280;10047;42.490;26.012;2023-04-06T05:20:20;100140.44;;;4.13;100.00
19777;BME280;10047;42.490;26.012;2023-04-06T05:22:46;100150.41;;;4.97;100.00
19777;BME280;10047;42.490;26.012;2023-04-06T05:25:13;100171.13;;;5.69;100.00
19777;BME280;10047;42.490;26.012;2023-04-06T05:27:38;100138.25;;;5.88;100.00
19777;BME280;10047;42.490;26.012;2023-04-06T05:30:05;100093.16;;;5.31;100.00
19777;BME280;10047;42.490;26.012;2023-04-06T05:32:31;100069.19;;;4.27;100.00
19777;BME280;10047;42.490;26.012;2023-04-06T05:34:56;100142.72;;;5.35;100.00
19777;BME280;10047;42.490;26.012;2023-04-06T05:37:22;100155.13;;;5.76;100.00
19777;BME280;10047;42.490;26.012;2023-04-06T05:39:48;100072.16;;;5.34;100.00
19777;BME280;10047;42.490;26.012;2023-04-06T05:42:13;100072.84;;;5.57;100.00
19777;BME280;10047;42.490;26.012;2023-04-06T05:44:38;100145.25;;;5.37;100.00
19777;BME280;10047;42.490;26.012;2023-04-06T05:47:04;100142.66;;;5.50;100.00
19777;BME280;10047;42.490;26.012;2023-04-06T05:49:29;100142.78;;;5.24;100.00
19777;BME280;10047;42.490;26.012;2023-04-06T05:51:55;100060.00;;;5.94;100.00
19777;BME280;10047;42.490;26.012;2023-04-06T05:54:20;100124.41;;;6.39;100.00
19777;BME280;10047;42.490;26.012;2023-04-06T05:56:46;100056.66;;;5.91;100.00
19777;BME280;10047;42.490;26.012;2023-04-06T05:59:11;100128.47;;;6.52;100.00
19777;BME280;10047;42.490;26.012;2023-04-06T06:01:37;100139.69;;;7.73;100.00
19777;BME280;10047;42.490;26.012;2023-04-06T06:04:02;100061.69;;;7.99;100.00
19777;BME280;10047;42.490;26.012;2023-04-06T06:06:28;100136.00;;;7.95;100.00
19777;BME280;10047;42.490;26.012;2023-04-06T06:08:57;100117.91;;;7.64;100.00
19777;BME280;10047;42.490;26.012;2023-04-06T06:11:26;100056.31;;;6.32;100.00
19777;BME280;10047;42.490;26.012;2023-04-06T06:13:52;100046.06;;;7.74;100.00
19777;BME280;10047;42.490;26.012;2023-04-06T06:16:18;100056.03;;;7.83;100.00
19777;BME280;10047;42.490;26.012;2023-04-06T06:18:43;100098.09;;;9.31;100.00
19777;BME280;10047;42.490;26.012;2023-04-06T06:21:09;100099.97;;;9.23;100.00
19777;BME280;10047;42.490;26.012;2023-04-06T06:23:36;100106.63;;;8.38;100.00
19777;BME280;10047;42.490;26.012;2023-04-06T06:26:02;100110.25;;;9.15;100.00
19777;BME280;10047;42.490;26.012;2023-04-06T06:28:27;100099.63;;;9.38;100.00
19777;BME280;10047;42.490;26.012;2023-04-06T06:30:52;100042.03;;;9.03;100.00
19777;BME280;10047;42.490;26.012;2023-04-06T06:33:18;100041.47;;;8.91;100.00
19777;BME280;10047;42.490;26.012;2023-04-06T06:35:43;100099.28;;;8.72;100.00
19777;BME280;10047;42.490;26.012;2023-04-06T06:38:09;100115.06;;;10.04;100.00
19777;BME280;10047;42.490;26.012;2023-04-06T06:40:34;100121.28;;;8.20;100.00
19777;BME280;10047;42.490;26.012;2023-04-06T06:43:00;100058.09;;;8.61;100.00
19777;BME280;10047;42.490;26.012;2023-04-06T06:45:25;100042.88;;;10.14;100.00
19777;BME280;10047;42.490;26.012;2023-04-06T06:47:51;100081.72;;;9.45;100.00
19777;BME280;10047;42.490;26.012;2023-04-06T06:50:16;100116.22;;;9.54;100.00
19777;BME280;10047;42.490;26.012;2023-04-06T06:52:42;100120.78;;;9.38;100.00
19777;BME280;10047;42.490;26.012;2023-04-06T06:55:09;100111.78;;;8.80;100.00
19777;BME280;10047;42.490;26.012;2023-04-06T06:57:35;100121.28;;;9.54;100.00
19777;BME280;10047;42.490;26.012;2023-04-06T07:00:01;100080.88;;;8.62;100.00
19777;BME280;10047;42.490;26.012;2023-04-06T07:02:26;100073.53;;;8.93;100.00
19777;BME280;10047;42.490;26.012;2023-04-06T07:04:52;100109.09;;;9.70;100.00
19777;BME280;10047;42.490;26.012;2023-04-06T07:07:17;100064.00;;;8.60;100.00
19777;BME280;10047;42.490;26.012;2023-04-06T07:09:42;100134.41;;;8.44;100.00
19777;BME280;10047;42.490;26.012;2023-04-06T07:12:08;100065.44;;;9.54;100.00
19777;BME280;10047;42.490;26.012;2023-04-06T07:14:33;100115.53;;;9.84;100.00
19777;BME280;10047;42.490;26.012;2023-04-06T07:16:59;100055.63;;;9.01;100.00
19777;BME280;10047;42.490;26.012;2023-04-06T07:19:24;100054.09;;;9.69;100.00
19777;BME280;10047;42.490;26.012;2023-04-06T07:21:49;100077.69;;;10.75;100.00
19777;BME280;10047;42.490;26.012;2023-04-06T07:24:16;100027.22;;;10.61;100.00
19777;BME280;10047;42.490;26.012;2023-04-06T07:26:42;99994.56;;;11.06;100.00
19777;BME280;10047;42.490;26.012;2023-04-06T07:29:08;100022.28;;;10.24;100.00
19777;BME280;10047;42.490;26.012;2023-04-06T07:31:33;100037.97;;;10.71;100.00
19777;BME280;10047;42.490;26.012;2023-04-06T07:34:00;100115.53;;;9.84;100.00
19777;BME280;10047;42.490;26.012;2023-04-06T07:36:26;100041.91;;;9.09;100.00
19777;BME280;10047;42.490;26.012;2023-04-06T07:38:51;100112.00;;;12.06;100.00
19777;BME280;10047;42.490;26.012;2023-04-06T07:41:17;100088.97;;;11.54;100.00
19777;BME280;10047;42.490;26.012;2023-04-06T07:43:42;100015.13;;;9.71;100.00
19777;BME280;10047;42.490;26.012;2023-04-06T07:46:07;100142.53;;;10.25;100.00
19777;BME280;10047;42.490;26.012;2023-04-06T07:48:33;100062.34;;;11.36;100.00
19777;BME280;10047;42.490;26.012;2023-04-06T07:51:02;100125.56;;;12.82;100.00
19777;BME280;10047;42.490;26.012;2023-04-06T07:53:28;100060.03;;;11.56;100.00
19777;BME280;10047;42.490;26.012;2023-04-06T07:55:53;100070.38;;;12.05;100.00
19777;BME280;10047;42.490;26.012;2023-04-06T07:58:20;100056.03;;;10.62;100.00
19777;BME280;10047;42.490;26.012;2023-04-06T08:00:46;100129.75;;;10.62;100.00
19777;BME280;10047;42.490;26.012;2023-04-06T08:03:11;100120.25;;;12.12;100.00
19777;BME280;10047;42.490;26.012;2023-04-06T08:05:37;99962.25;;;11.08;100.00
19777;BME280;10047;42.490;26.012;2023-04-06T08:08:03;100116.91;;;12.86;100.00
19777;BME280;10047;42.490;26.012;2023-04-06T08:10:29;100114.34;;;12.12;100.00
19777;BME280;10047;42.490;26.012;2023-04-06T08:12:54;100124.91;;;13.00;100.00
19777;BME280;10047;42.490;26.012;2023-04-06T08:15:20;100102.44;;;11.86;100.00
19777;BME280;10047;42.490;26.012;2023-04-06T08:17:45;100076.63;;;10.82;100.00
19777;BME280;10047;42.490;26.012;2023-04-06T08:20:10;100060.84;;;11.29;100.00
19777;BME280;10047;42.490;26.012;2023-04-06T08:22:36;100045.03;;;11.47;100.00
19777;BME280;10047;42.490;26.012;2023-04-06T08:25:01;100037.69;;;11.66;100.00
19777;BME280;10047;42.490;26.012;2023-04-06T08:27:27;99992.28;;;10.05;100.00
19777;BME280;10047;42.490;26.012;2023-04-06T08:29:52;100115.00;;;12.17;100.00
19777;BME280;10047;42.490;26.012;2023-04-06T08:32:18;100062.38;;;11.07;100.00
19777;BME280;10047;42.490;26.012;2023-04-06T08:34:43;100070.47;;;12.02;100.00
19777;BME280;10047;42.490;26.012;2023-04-06T08:37:08;100029.16;;;11.67;100.00
19777;BME280;10047;42.490;26.012;2023-04-06T08:39:34;100131.50;;;12.58;100.00
19777;BME280;10047;42.490;26.012;2023-04-06T08:42:01;100121.31;;;13.07;100.00
19777;BME280;10047;42.490;26.012;2023-04-06T08:44:29;100057.50;;;11.56;100.00
19777;BME280;10047;42.490;26.012;2023-04-06T08:46:55;100119.31;;;12.41;100.00
19777;BME280;10047;42.490;26.012;2023-04-06T08:49:21;100039.28;;;13.16;100.00
19777;BME280;10047;42.490;26.012;2023-04-06T08:51:47;100107.63;;;13.31;100.00
19777;BME280;10047;42.490;26.012;2023-04-06T08:54:12;100047.06;;;11.91;100.00
19777;BME280;10047;42.490;26.012;2023-04-06T08:56:38;100111.31;;;12.52;100.00
19777;BME280;10047;42.490;26.012;2023-04-06T08:59:05;100116.34;;;13.26;100.00
19777;BME280;10047;42.490;26.012;2023-04-06T09:01:33;100094.03;;;13.07;100.00
19777;BME280;10047;42.490;26.012;2023-04-06T09:04:03;100037.44;;;13.41;100.00
19777;BME280;10047;42.490;26.012;2023-04-06T09:06:34;100117.66;;;12.65;100.00
19777;BME280;10047;42.490;26.012;2023-04-06T09:09:00;100122.34;;;11.45;100.00
19777;BME280;10047;42.490;26.012;2023-04-06T09:11:25;100134.22;;;11.73;100.00
19777;BME280;10047;42.490;26.012;2023-04-06T09:13:54;100133.34;;;12.02;100.00
19777;BME280;10047;42.490;26.012;2023-04-06T09:16:20;99971.94;;;10.97;100.00
19777;BME280;10047;42.490;26.012;2023-04-06T09:18:47;100076.22;;;13.06;100.00
19777;BME280;10047;42.490;26.012;2023-04-06T09:21:13;100120.19;;;12.40;100.00
19777;BME280;10047;42.490;26.012;2023-04-06T09:23:38;100139.53;;;12.21;100.00
19777;BME280;10047;42.490;26.012;2023-04-06T09:26:15;100125.84;;;12.50;100.00
19777;BME280;10047;42.490;26.012;2023-04-06T09:28:54;100082.22;;;13.28;100.00
19777;BME280;10047;42.490;26.012;2023-04-06T09:31:24;100108.63;;;13.72;100.00
19777;BME280;10047;42.490;26.012;2023-04-06T09:33:51;100120.28;;;11.28;100.00
19777;BME280;10047;42.490;26.012;2023-04-06T09:36:20;100036.13;;;12.62;100.00
19777;BME280;10047;42.490;26.012;2023-04-06T09:39:04;100128.28;;;11.73;100.00
19777;BME280;10047;42.490;26.012;2023-04-06T09:41:34;100084.72;;;11.54;100.00
19777;BME280;10047;42.490;26.012;2023-04-06T09:44:07;100147.25;;;11.92;100.00
19777;BME280;10047;42.490;26.012;2023-04-06T09:46:48;100069.69;;;11.74;100.00
19777;BME280;10047;42.490;26.012;2023-04-06T09:49:13;100087.19;;;10.99;100.00
19777;BME280;10047;42.490;26.012;2023-04-06T09:51:45;100066.31;;;10.88;100.00
19777;BME280;10047;42.490;26.012;2023-04-06T09:54:15;100155.78;;;10.70;100.00
19777;BME280;10047;42.490;26.012;2023-04-06T09:56:58;100081.44;;;11.51;100.00
19777;BME280;10047;42.490;26.012;2023-04-06T09:59:50;100152.59;;;11.84;100.00
19777;BME280;10047;42.490;26.012;2023-04-06T10:03:08;100017.66;;;11.81;100.00
19777;BME280;10047;42.490;26.012;2023-04-06T10:07:42;100058.47;;;9.99;100.00
19777;BME280;10047;42.490;26.012;2023-04-06T10:10:09;100163.66;;;11.54;100.00
19777;BME280;10047;42.490;26.012;2023-04-06T10:12:38;100075.56;;;11.49;100.00
19777;BME280;10047;42.490;26.012;2023-04-06T10:15:08;100138.56;;;12.99;100.00
19777;BME280;10047;42.490;26.012;2023-04-06T10:17:34;100055.13;;;12.78;100.00
19777;BME280;10047;42.490;26.012;2023-04-06T10:20:11;100127.25;;;13.31;100.00
19777;BME280;10047;42.490;26.012;2023-04-06T10:25:26;100122.84;;;12.62;100.00
19777;BME280;10047;42.490;26.012;2023-04-06T10:28:01;100148.94;;;11.64;100.00
19777;BME280;10047;42.490;26.012;2023-04-06T10:30:42;100098.63;;;11.15;100.00
19777;BME280;10047;42.490;26.012;2023-04-06T10:33:32;100142.84;;;11.97;100.00
19777;BME280;10047;42.490;26.012;2023-04-06T10:35:58;100062.00;;;10.90;100.00
19777;BME280;10047;42.490;26.012;2023-04-06T10:38:38;100148.91;;;11.05;100.00
19777;BME280;10047;42.490;26.012;2023-04-06T10:41:09;100155.88;;;11.59;100.00
19777;BME280;10047;42.490;26.012;2023-04-06T10:43:37;100100.53;;;11.07;100.00
19777;BME280;10047;42.490;26.012;2023-04-06T10:46:04;100140.97;;;12.28;100.00
19777;BME280;10047;42.490;26.012;2023-04-06T10:48:44;100076.66;;;11.40;100.00
19777;BME280;10047;42.490;26.012;2023-04-06T10:51:15;100157.81;;;13.09;100.00
19777;BME280;10047;42.490;26.012;2023-04-06T10:53:45;100158.75;;;12.31;100.00
19777;BME280;10047;42.490;26.012;2023-04-06T10:56:17;100088.34;;;12.01;100.00
19777;BME280;10047;42.490;26.012;2023-04-06T10:58:53;100109.59;;;12.01;100.00
19777;BME280;10047;42.490;26.012;2023-04-06T11:01:25;100031.31;;;12.05;100.00
19777;BME280;10047;42.490;26.012;2023-04-06T11:03:55;100144.78;;;12.67;100.00
19777;BME280;10047;42.490;26.012;2023-04-06T11:06:23;100071.22;;;12.31;100.00
19777;BME280;10047;42.490;26.012;2023-04-06T11:08:58;100145.19;;;12.03;100.00
19777;BME280;10047;42.490;26.012;2023-04-06T11:11:25;100134.72;;;12.63;100.00
19777;BME280;10047;42.490;26.012;2023-04-06T11:13:56;100077.13;;;12.06;100.00
19777;BME280;10047;42.490;26.012;2023-04-06T11:16:23;100084.38;;;12.18;100.00
19777;BME280;10047;42.490;26.012;2023-04-06T11:18:54;100152.13;;;11.72;100.00
19777;BME280;10047;42.490;26.012;2023-04-06T11:21:37;100148.50;;;12.33;100.00
19777;BME280;10047;42.490;26.012;2023-04-06T11:24:11;100101.72;;;12.34;100.00
19777;BME280;10047;42.490;26.012;2023-04-06T11:29:27;100126.91;;;12.43;100.00
19777;BME280;10047;42.490;26.012;2023-04-06T11:31:57;100126.47;;;12.81;100.00
19777;BME280;10047;42.490;26.012;2023-04-06T11:34:24;100134.81;;;12.09;100.00
19777;BME280;10047;42.490;26.012;2023-04-06T11:36:59;100128.16;;;12.80;100.00
19777;BME280;10047;42.490;26.012;2023-04-06T11:39:27;100060.59;;;11.93;100.00
19777;BME280;10047;42.490;26.012;2023-04-06T11:41:57;100141.88;;;12.01;100.00
19777;BME280;10047;42.490;26.012;2023-04-06T11:44:33;100125.69;;;12.79;100.00
19777;BME280;10047;42.490;26.012;2023-04-06T11:47:04;100124.34;;;13.61;100.00
19777;BME280;10047;42.490;26.012;2023-04-06T11:49:31;100121.03;;;12.90;100.00
19777;BME280;10047;42.490;26.012;2023-04-06T11:51:57;100116.31;;;12.55;100.00
19777;BME280;10047;42.490;26.012;2023-04-06T11:54:33;100113.56;;;13.32;100.00
19777;BME280;10047;42.490;26.012;2023-04-06T11:56:59;100100.81;;;12.84;100.00
19777;BME280;10047;42.490;26.012;2023-04-06T11:59:26;99990.06;;;12.66;100.00
19777;BME280;10047;42.490;26.012;2023-04-06T12:01:52;100121.72;;;12.95;100.00
19777;BME280;10047;42.490;26.012;2023-04-06T12:04:18;100114.28;;;13.35;100.00
19777;BME280;10047;42.490;26.012;2023-04-06T12:06:44;100032.59;;;12.66;100.00
19777;BME280;10047;42.490;26.012;2023-04-06T12:09:10;100026.59;;;12.44;100.00
19777;BME280;10047;42.490;26.012;2023-04-06T12:11:35;99974.50;;;13.19;100.00
19777;BME280;10047;42.490;26.012;2023-04-06T12:14:01;100028.59;;;12.82;100.00
19777;BME280;10047;42.490;26.012;2023-04-06T12:16:30;100091.09;;;13.18;100.00
19777;BME280;10047;42.490;26.012;2023-04-06T12:18:55;100091.44;;;13.54;100.00
19777;BME280;10047;42.490;26.012;2023-04-06T12:21:21;100022.09;;;12.01;100.00
19777;BME280;10047;42.490;26.012;2023-04-06T12:23:46;100086.38;;;13.07;100.00
19777;BME280;10047;42.490;26.012;2023-04-06T12:26:13;100019.06;;;12.64;100.00
19777;BME280;10047;42.490;26.012;2023-04-06T12:28:39;100082.66;;;12.93;100.00
19777;BME280;10047;42.490;26.012;2023-04-06T12:31:05;100051.78;;;12.53;100.00
19777;BME280;10047;42.490;26.012;2023-04-06T12:33:30;99997.53;;;12.94;100.00
19777;BME280;10047;42.490;26.012;2023-04-06T12:35:56;100020.97;;;12.34;100.00
19777;BME280;10047;42.490;26.012;2023-04-06T12:38:21;100088.06;;;13.53;100.00
19777;BME280;10047;42.490;26.012;2023-04-06T12:40:47;100057.91;;;12.23;100.00
19777;BME280;10047;42.490;26.012;2023-04-06T12:43:12;100078.47;;;13.15;100.00